Time;durP1;ratioP1;P1;durP2;ratioP2;P2;SDS_P1;SDS_P2;PMS_P1;PMS_P2;Temp;Humidity;BMP_temperature;BMP_pressure;BME280_temperature;BME280_humidity;BME280_pressure;Samples;Min_cycle;Max_cycle;Signal;HPM_P1;HPM_P2
2022/01/16 00:00:40;;;;;;;13.45;7.60;;;;;;;;;;5033441;28;20084;-65
2022/01/16 00:05:51;;;;;;;16.23;7.85;;;;;;;;;;5032570;28;20043;-65
2022/01/16 00:08:17;;;;;;;12.73;6.82;;;;;;;;;;5031736;28;20488;-65
2022/01/16 00:10:43;;;;;;;16.50;6.78;;;;;;;;;;5029979;28;20026;-65
2022/01/16 00:13:09;;;;;;;13.02;5.97;;;;;;;;;;5031797;28;20459;-65
2022/01/16 00:15:35;;;;;;;13.65;6.13;;;;;;;;;;5049797;28;20044;-65
2022/01/16 00:20:29;;;;;;;12.07;6.07;;;;;;;;;;5043929;28;20120;-65
2022/01/16 00:22:56;;;;;;;15.00;6.50;;;;;;;;;;5047376;28;20100;-65
2022/01/16 00:25:23;;;;;;;13.95;5.97;;;;;;;;;;5031724;28;20596;-65
2022/01/16 00:27:49;;;;;;;12.85;6.47;;;;;;;;;;5039914;28;20037;-65
2022/01/16 00:30:15;;;;;;;12.32;6.43;;;;;;;;;;5035699;28;20044;-65
2022/01/16 00:32:41;;;;;;;15.65;6.97;;;;;;;;;;5035164;28;20439;-65
2022/01/16 00:35:08;;;;;;;14.00;7.32;;;;;;;;;;5034893;28;20037;-65
2022/01/16 00:37:34;;;;;;;14.73;7.43;;;;;;;;;;5032690;28;20050;-66
2022/01/16 00:40:00;;;;;;;13.32;7.10;;;;;;;;;;5036782;28;20029;-65
2022/01/16 00:42:26;;;;;;;17.48;8.73;;;;;;;;;;5036425;28;20101;-65
2022/01/16 00:44:52;;;;;;;17.33;7.30;;;;;;;;;;5035391;28;20033;-65
2022/01/16 00:47:18;;;;;;;17.33;7.90;;;;;;;;;;5033356;28;20038;-65
2022/01/16 00:49:44;;;;;;;15.80;7.25;;;;;;;;;;5038574;28;20388;-66
2022/01/16 00:52:10;;;;;;;10.40;5.18;;;;;;;;;;5047564;28;20025;-65
2022/01/16 00:54:37;;;;;;;9.10;4.60;;;;;;;;;;5035391;28;20045;-66
2022/01/16 00:57:03;;;;;;;12.35;5.10;;;;;;;;;;5033322;28;20029;-66
2022/01/16 00:59:30;;;;;;;8.38;4.53;;;;;;;;;;5033679;28;20067;-66
2022/01/16 01:01:56;;;;;;;9.65;4.63;;;;;;;;;;5034855;28;20536;-65
2022/01/16 01:04:22;;;;;;;12.57;5.93;;;;;;;;;;5031303;28;20488;-65
2022/01/16 01:06:50;;;;;;;10.32;5.80;;;;;;;;;;5038735;28;20038;-66
2022/01/16 01:09:16;;;;;;;9.73;5.68;;;;;;;;;;5034674;28;20030;-65
2022/01/16 01:11:45;;;;;;;9.73;5.55;;;;;;;;;;5035135;28;20021;-65
2022/01/16 01:15:06;;;;;;;11.75;5.80;;;;;;;;;;5036467;28;20036;-65
2022/01/16 01:17:03;;;;;;;14.57;6.15;;;;;;;;;;5042788;28;20056;-65
2022/01/16 01:19:33;;;;;;;10.45;5.00;;;;;;;;;;5038709;28;20121;-65
2022/01/16 01:21:59;;;;;;;8.45;3.65;;;;;;;;;;5049253;28;20377;-65
2022/01/16 01:24:26;;;;;;;8.20;3.58;;;;;;;;;;5037419;28;20040;-66
2022/01/16 01:27:04;;;;;;;7.10;3.60;;;;;;;;;;5033559;28;20452;-65
2022/01/16 01:29:31;;;;;;;10.57;4.50;;;;;;;;;;5034690;28;20035;-66
2022/01/16 01:31:57;;;;;;;10.00;4.53;;;;;;;;;;5034807;28;20109;-66
2022/01/16 01:34:23;;;;;;;12.88;5.30;;;;;;;;;;5030438;28;20445;-69
2022/01/16 01:36:49;;;;;;;11.10;4.57;;;;;;;;;;5044818;28;20135;-66
2022/01/16 01:39:16;;;;;;;10.40;4.35;;;;;;;;;;5034689;28;20029;-66
2022/01/16 01:41:43;;;;;;;10.88;4.35;;;;;;;;;;5034859;28;20036;-66
2022/01/16 01:52:23;;;;;;;5.93;2.63;;;;;;;;;;5014525;28;20060;-66
2022/01/16 01:54:50;;;;;;;7.85;3.40;;;;;;;;;;5038155;28;20083;-65
2022/01/16 01:57:16;;;;;;;9.00;3.60;;;;;;;;;;5033925;28;20180;-66
2022/01/16 01:59:42;;;;;;;9.68;3.78;;;;;;;;;;5034609;28;20404;-66
2022/01/16 02:02:08;;;;;;;10.32;5.00;;;;;;;;;;5034193;28;20033;-66
2022/01/16 02:04:34;;;;;;;11.95;5.43;;;;;;;;;;5030771;28;20026;-66
2022/01/16 02:07:00;;;;;;;10.95;5.10;;;;;;;;;;5034869;28;20029;-65
2022/01/16 02:09:26;;;;;;;12.10;5.85;;;;;;;;;;5035426;28;20535;-66
2022/01/16 02:11:53;;;;;;;9.75;4.75;;;;;;;;;;5034301;28;20040;-66
2022/01/16 02:14:31;;;;;;;8.77;4.68;;;;;;;;;;5036531;28;20033;-66
2022/01/16 02:28:10;;;;;;;8.43;4.75;;;;;;;;;;5044669;28;20028;-66
2022/01/16 02:31:22;;;;;;;6.68;3.35;;;;;;;;;;5035683;28;20484;-66
2022/01/16 02:36:19;;;;;;;7.10;3.72;;;;;;;;;;5033416;28;20068;-65
2022/01/16 02:38:47;;;;;;;8.20;3.83;;;;;;;;;;5033254;28;20029;-66
2022/01/16 02:41:13;;;;;;;6.85;3.50;;;;;;;;;;5032475;28;20039;-66
2022/01/16 02:43:45;;;;;;;8.85;3.70;;;;;;;;;;5032307;28;20022;-66
2022/01/16 02:48:40;;;;;;;7.72;3.45;;;;;;;;;;5034696;28;20120;-66
2022/01/16 02:51:06;;;;;;;8.20;3.60;;;;;;;;;;5040079;28;20469;-66
2022/01/16 02:53:32;;;;;;;8.13;3.83;;;;;;;;;;5039558;28;20041;-66
2022/01/16 02:56:00;;;;;;;7.70;4.10;;;;;;;;;;5033547;28;20040;-65
2022/01/16 02:58:26;;;;;;;8.32;3.72;;;;;;;;;;5028768;28;20025;-66
2022/01/16 03:00:52;;;;;;;7.75;3.67;;;;;;;;;;5034332;28;20025;-66
2022/01/16 03:03:18;;;;;;;8.00;4.07;;;;;;;;;;5031306;28;20527;-66
2022/01/16 03:05:44;;;;;;;9.00;4.28;;;;;;;;;;5031459;28;20033;-66
2022/01/16 03:08:10;;;;;;;7.18;4.28;;;;;;;;;;5031157;28;20025;-66
2022/01/16 03:13:21;;;;;;;7.90;3.85;;;;;;;;;;5027278;28;20040;-66
2022/01/16 03:15:50;;;;;;;6.70;2.80;;;;;;;;;;5049858;28;20037;-66
2022/01/16 03:23:26;;;;;;;7.75;2.95;;;;;;;;;;5040242;28;20120;-66
2022/01/16 03:25:53;;;;;;;6.60;3.17;;;;;;;;;;5032421;28;20108;-66
2022/01/16 03:28:19;;;;;;;6.90;3.30;;;;;;;;;;5029624;28;20040;-66
2022/01/16 03:30:46;;;;;;;8.32;3.03;;;;;;;;;;5034668;28;20036;-65
2022/01/16 03:33:12;;;;;;;7.10;3.08;;;;;;;;;;5032832;28;20037;-66
2022/01/16 03:35:39;;;;;;;5.45;2.95;;;;;;;;;;5032639;28;20055;-66
2022/01/16 03:38:06;;;;;;;9.98;3.65;;;;;;;;;;5032016;28;20056;-65
2022/01/16 03:40:32;;;;;;;6.38;3.35;;;;;;;;;;5028947;28;20038;-66
2022/01/16 03:43:04;;;;;;;7.63;3.35;;;;;;;;;;5034146;28;20040;-66
2022/01/16 03:45:31;;;;;;;7.80;3.35;;;;;;;;;;5035532;28;20025;-66
2022/01/16 03:47:58;;;;;;;7.88;3.47;;;;;;;;;;5032318;28;20045;-66
2022/01/16 03:50:25;;;;;;;13.88;5.93;;;;;;;;;;5032769;28;20464;-66
2022/01/16 03:52:51;;;;;;;7.43;4.03;;;;;;;;;;5043070;28;20472;-66
2022/01/16 03:55:17;;;;;;;7.10;3.45;;;;;;;;;;5029744;28;20530;-66
2022/01/16 03:57:43;;;;;;;9.18;3.80;;;;;;;;;;5035113;28;20032;-66
2022/01/16 04:00:09;;;;;;;7.70;4.45;;;;;;;;;;5031752;28;20148;-66
2022/01/16 04:02:35;;;;;;;9.70;4.13;;;;;;;;;;5031982;28;20034;-66
2022/01/16 04:05:01;;;;;;;4.95;2.50;;;;;;;;;;5032322;28;20453;-66
2022/01/16 04:07:32;;;;;;;4.85;2.45;;;;;;;;;;5028018;28;20108;-66
2022/01/16 04:09:58;;;;;;;6.00;2.58;;;;;;;;;;5033268;28;20030;-66
2022/01/16 04:12:24;;;;;;;5.32;2.60;;;;;;;;;;5033419;28;20036;-66
2022/01/16 04:17:18;;;;;;;11.23;4.15;;;;;;;;;;5040322;28;20043;-65
2022/01/16 04:19:44;;;;;;;7.47;2.60;;;;;;;;;;5029350;28;20029;-66
2022/01/16 04:22:11;;;;;;;9.45;3.42;;;;;;;;;;5045841;28;20037;-65
2022/01/16 04:24:37;;;;;;;5.07;2.58;;;;;;;;;;5033713;28;20152;-66
2022/01/16 04:27:03;;;;;;;5.63;2.38;;;;;;;;;;5032022;28;20530;-66
2022/01/16 04:29:29;;;;;;;3.47;1.88;;;;;;;;;;5031179;28;20033;-66
2022/01/16 04:31:55;;;;;;;6.25;2.08;;;;;;;;;;5031977;28;20025;-66
2022/01/16 04:34:21;;;;;;;5.22;2.22;;;;;;;;;;5028296;28;20045;-66
2022/01/16 04:36:47;;;;;;;6.45;2.92;;;;;;;;;;5034536;28;20120;-67
2022/01/16 04:39:16;;;;;;;7.25;2.88;;;;;;;;;;5031751;28;20049;-66
2022/01/16 04:44:27;;;;;;;4.47;2.33;;;;;;;;;;5031600;28;20496;-66
2022/01/16 04:46:53;;;;;;;5.28;2.80;;;;;;;;;;5031436;28;20366;-66
2022/01/16 04:49:19;;;;;;;7.18;2.70;;;;;;;;;;5029018;28;20033;-66
2022/01/16 04:51:45;;;;;;;5.97;2.85;;;;;;;;;;5045992;28;20582;-66
2022/01/16 04:54:12;;;;;;;4.95;2.42;;;;;;;;;;5032412;28;20128;-66
2022/01/16 04:56:38;;;;;;;6.80;2.00;;;;;;;;;;5031359;28;20029;-66
2022/01/16 04:59:04;;;;;;;6.18;2.58;;;;;;;;;;5031676;28;20086;-66
2022/01/16 05:01:30;;;;;;;3.97;1.90;;;;;;;;;;5031028;28;20029;-66
2022/01/16 05:03:56;;;;;;;7.05;2.85;;;;;;;;;;5037833;28;20080;-66
2022/01/16 05:06:22;;;;;;;4.55;2.03;;;;;;;;;;5036120;28;20600;-66
2022/01/16 05:08:48;;;;;;;4.15;1.80;;;;;;;;;;5034910;28;20032;-67
2022/01/16 05:11:18;;;;;;;4.82;1.85;;;;;;;;;;5034584;28;20033;-66
2022/01/16 05:18:55;;;;;;;4.05;1.90;;;;;;;;;;5046252;28;20159;-66
2022/01/16 05:21:21;;;;;;;4.10;1.90;;;;;;;;;;5043875;28;20025;-66
2022/01/16 05:23:47;;;;;;;2.58;1.30;;;;;;;;;;5039239;28;20033;-66
2022/01/16 05:26:14;;;;;;;4.55;1.77;;;;;;;;;;5034549;28;20033;-66
2022/01/16 05:28:40;;;;;;;4.45;1.98;;;;;;;;;;5032885;28;20393;-66
2022/01/16 05:31:06;;;;;;;4.38;2.03;;;;;;;;;;5034850;28;20040;-66
2022/01/16 05:33:32;;;;;;;6.15;2.42;;;;;;;;;;5035682;28;20029;-66
2022/01/16 05:35:58;;;;;;;3.47;1.58;;;;;;;;;;5035001;28;20067;-66
2022/01/16 05:38:24;;;;;;;3.65;1.77;;;;;;;;;;5034643;28;20046;-66
2022/01/16 05:40:50;;;;;;;4.15;1.90;;;;;;;;;;5032826;28;20032;-66
2022/01/16 05:43:16;;;;;;;5.75;2.00;;;;;;;;;;5031997;28;20040;-66
2022/01/16 05:45:42;;;;;;;4.88;2.17;;;;;;;;;;5036551;28;20029;-66
2022/01/16 05:48:08;;;;;;;4.28;1.95;;;;;;;;;;5035101;28;20029;-66
2022/01/16 05:50:34;;;;;;;4.07;2.00;;;;;;;;;;5036608;28;20025;-66
2022/01/16 05:53:01;;;;;;;6.95;4.22;;;;;;;;;;5045402;28;20108;-66
2022/01/16 05:55:31;;;;;;;4.28;2.08;;;;;;;;;;5029878;28;20046;-66
2022/01/16 05:57:57;;;;;;;4.78;2.70;;;;;;;;;;5035973;28;20018;-66
2022/01/16 06:00:24;;;;;;;3.65;1.90;;;;;;;;;;5035111;28;20033;-66
2022/01/16 06:02:50;;;;;;;3.88;2.20;;;;;;;;;;5034618;28;20473;-66
2022/01/16 06:05:16;;;;;;;4.43;2.38;;;;;;;;;;5033011;28;20384;-66
2022/01/16 06:07:51;;;;;;;3.33;2.00;;;;;;;;;;5029894;28;20040;-65
2022/01/16 06:10:17;;;;;;;4.78;2.10;;;;;;;;;;5019522;28;20069;-65
2022/01/16 06:12:44;;;;;;;3.92;1.88;;;;;;;;;;5016447;28;20040;-65
2022/01/16 06:15:10;;;;;;;3.50;1.70;;;;;;;;;;5028376;28;20488;-65
2022/01/16 06:17:36;;;;;;;3.90;1.67;;;;;;;;;;5029048;28;20047;-64
2022/01/16 06:20:02;;;;;;;2.28;1.33;;;;;;;;;;5031094;28;21642;-65
2022/01/16 06:22:28;;;;;;;2.67;1.55;;;;;;;;;;5043403;28;20025;-65
2022/01/16 06:24:54;;;;;;;3.60;1.60;;;;;;;;;;5031508;28;20026;-64
2022/01/16 06:27:20;;;;;;;2.85;1.45;;;;;;;;;;5030667;28;20373;-65
2022/01/16 06:29:46;;;;;;;2.30;1.33;;;;;;;;;;5030331;28;20025;-66
2022/01/16 06:32:12;;;;;;;3.67;1.38;;;;;;;;;;5030341;28;20025;-65
2022/01/16 06:34:38;;;;;;;3.28;1.50;;;;;;;;;;5028682;28;20033;-65
2022/01/16 06:37:04;;;;;;;3.33;1.67;;;;;;;;;;5014310;28;20053;-65
2022/01/16 06:39:31;;;;;;;2.97;1.30;;;;;;;;;;5028061;28;20026;-65
2022/01/16 06:41:57;;;;;;;2.72;1.27;;;;;;;;;;5029476;28;20029;-66
2022/01/16 06:44:23;;;;;;;2.20;1.20;;;;;;;;;;5029993;28;20038;-64
2022/01/16 06:46:49;;;;;;;2.63;1.20;;;;;;;;;;5029877;28;20055;-64
2022/01/16 06:49:15;;;;;;;2.83;1.77;;;;;;;;;;5029200;28;20037;-65
2022/01/16 06:51:41;;;;;;;3.88;1.70;;;;;;;;;;5023462;28;20534;-65
2022/01/16 06:54:07;;;;;;;3.83;1.85;;;;;;;;;;5029063;28;20030;-64
2022/01/16 06:56:33;;;;;;;4.78;2.83;;;;;;;;;;5029034;28;20087;-63
2022/01/16 06:58:59;;;;;;;4.22;2.28;;;;;;;;;;5026586;28;20029;-63
2022/01/16 07:01:26;;;;;;;4.70;2.25;;;;;;;;;;5025726;28;20036;-65
2022/01/16 07:03:56;;;;;;;1.58;0.90;;;;;;;;;;5030808;28;20100;-65
2022/01/16 07:06:22;;;;;;;2.53;1.33;;;;;;;;;;5029332;28;20029;-64
2022/01/16 07:08:48;;;;;;;4.72;1.65;;;;;;;;;;5026540;28;20033;-64
2022/01/16 07:11:15;;;;;;;4.07;1.52;;;;;;;;;;5027557;28;20553;-64
2022/01/16 07:13:41;;;;;;;3.28;1.30;;;;;;;;;;5027416;28;20108;-64
2022/01/16 07:16:08;;;;;;;3.03;1.42;;;;;;;;;;5029808;28;20037;-62
2022/01/16 07:18:34;;;;;;;2.10;1.40;;;;;;;;;;5014480;28;20034;-66
2022/01/16 07:21:00;;;;;;;3.50;1.70;;;;;;;;;;5017255;28;20037;-62
2022/01/16 07:23:26;;;;;;;3.42;1.70;;;;;;;;;;5015648;28;20026;-64
2022/01/16 07:25:52;;;;;;;2.58;1.58;;;;;;;;;;5013734;28;20028;-65
2022/01/16 07:28:19;;;;;;;6.10;1.85;;;;;;;;;;5013698;28;20470;-64
2022/01/16 07:30:45;;;;;;;4.10;1.45;;;;;;;;;;5029503;28;20031;-65
2022/01/16 07:33:11;;;;;;;4.53;1.70;;;;;;;;;;5023309;28;20511;-65
2022/01/16 07:35:38;;;;;;;4.00;1.52;;;;;;;;;;5023870;28;20052;-66
2022/01/16 07:38:04;;;;;;;3.40;1.23;;;;;;;;;;5025148;28;20501;-66
2022/01/16 07:40:30;;;;;;;2.70;1.17;;;;;;;;;;5016319;28;20036;-65
2022/01/16 07:42:58;;;;;;;3.30;1.50;;;;;;;;;;5013669;28;20112;-66
2022/01/16 07:45:24;;;;;;;2.90;1.48;;;;;;;;;;5014934;28;20393;-66
2022/01/16 07:47:50;;;;;;;3.78;1.75;;;;;;;;;;5028674;28;20109;-65
2022/01/16 07:50:16;;;;;;;3.90;1.60;;;;;;;;;;5024852;28;20041;-65
2022/01/16 07:52:43;;;;;;;3.22;1.70;;;;;;;;;;5013603;28;20393;-64
2022/01/16 07:55:09;;;;;;;2.42;1.42;;;;;;;;;;5023555;28;20045;-69
2022/01/16 07:57:35;;;;;;;4.78;2.47;;;;;;;;;;5015669;28;20113;-69
2022/01/16 08:00:01;;;;;;;5.05;2.92;;;;;;;;;;5022617;28;20404;-67
2022/01/16 08:02:27;;;;;;;4.32;2.20;;;;;;;;;;5023373;28;20034;-67
2022/01/16 08:04:53;;;;;;;3.17;1.67;;;;;;;;;;5018317;28;20370;-65
2022/01/16 08:07:19;;;;;;;2.45;1.60;;;;;;;;;;5012275;28;20045;-68
2022/01/16 08:09:45;;;;;;;2.60;1.40;;;;;;;;;;5019239;28;20465;-68
2022/01/16 08:12:12;;;;;;;1.98;1.25;;;;;;;;;;5016893;28;20393;-67
2022/01/16 08:14:38;;;;;;;3.33;1.75;;;;;;;;;;5021332;28;20042;-67
2022/01/16 08:17:04;;;;;;;5.82;2.53;;;;;;;;;;5025042;28;20512;-67
2022/01/16 08:19:31;;;;;;;5.32;2.03;;;;;;;;;;5012864;28;20040;-70
2022/01/16 08:21:57;;;;;;;3.38;1.70;;;;;;;;;;5013754;28;20044;-76
2022/01/16 08:24:24;;;;;;;4.32;2.13;;;;;;;;;;5027862;28;20695;-66
2022/01/16 08:26:51;;;;;;;3.67;2.00;;;;;;;;;;5024661;28;20021;-66
2022/01/16 08:29:17;;;;;;;3.38;1.63;;;;;;;;;;5024788;28;20030;-66
2022/01/16 08:31:43;;;;;;;3.83;2.20;;;;;;;;;;5029764;28;20022;-67
2022/01/16 08:34:09;;;;;;;4.32;1.90;;;;;;;;;;5031140;28;20105;-66
2022/01/16 08:36:35;;;;;;;5.43;2.33;;;;;;;;;;5036761;28;20108;-66
2022/01/16 08:39:01;;;;;;;6.28;2.30;;;;;;;;;;5035467;28;20036;-67
2022/01/16 08:41:27;;;;;;;4.00;2.15;;;;;;;;;;5035817;28;20022;-69
2022/01/16 08:43:53;;;;;;;5.60;2.00;;;;;;;;;;5035515;28;20480;-69
2022/01/16 08:46:20;;;;;;;4.47;2.28;;;;;;;;;;5032127;28;20093;-70
2022/01/16 08:48:47;;;;;;;5.10;2.03;;;;;;;;;;5038452;28;20469;-70
2022/01/16 08:51:13;;;;;;;4.93;2.40;;;;;;;;;;5042934;28;20095;-69
2022/01/16 08:53:39;;;;;;;3.45;1.75;;;;;;;;;;5040569;28;20560;-70
2022/01/16 08:56:05;;;;;;;2.95;1.80;;;;;;;;;;5035083;28;20032;-69
2022/01/16 08:58:32;;;;;;;4.18;2.15;;;;;;;;;;5031879;28;20103;-69
2022/01/16 09:00:58;;;;;;;4.93;2.08;;;;;;;;;;5037102;28;20080;-71
2022/01/16 09:03:24;;;;;;;5.38;2.25;;;;;;;;;;5033985;28;20512;-69
2022/01/16 09:05:50;;;;;;;14.80;6.50;;;;;;;;;;5034822;28;20416;-71
2022/01/16 09:08:18;;;;;;;7.80;3.75;;;;;;;;;;5033516;28;20048;-71
2022/01/16 09:10:44;;;;;;;8.57;3.97;;;;;;;;;;5033001;28;20061;-71
2022/01/16 09:13:15;;;;;;;8.55;3.85;;;;;;;;;;5034391;28;20082;-69
2022/01/16 09:15:47;;;;;;;8.38;3.72;;;;;;;;;;5050607;28;20051;-69
2022/01/16 09:18:13;;;;;;;6.10;2.70;;;;;;;;;;5034726;28;20026;-69
2022/01/16 09:20:39;;;;;;;7.60;3.05;;;;;;;;;;5035452;28;20082;-70
2022/01/16 09:23:05;;;;;;;7.57;3.00;;;;;;;;;;5038722;28;20017;-70
2022/01/16 09:25:31;;;;;;;6.43;2.83;;;;;;;;;;5042509;28;20051;-70
2022/01/16 09:27:58;;;;;;;4.55;2.00;;;;;;;;;;5034670;28;20354;-70
2022/01/16 09:30:24;;;;;;;6.75;2.00;;;;;;;;;;5033423;28;20492;-69
2022/01/16 09:32:50;;;;;;;4.43;1.83;;;;;;;;;;5032676;28;20030;-70
2022/01/16 09:35:16;;;;;;;4.32;1.88;;;;;;;;;;5032396;28;20052;-70
2022/01/16 09:37:43;;;;;;;2.63;1.40;;;;;;;;;;5032126;28;20050;-69
2022/01/16 09:40:10;;;;;;;4.55;1.67;;;;;;;;;;5034250;28;20033;-69
2022/01/16 09:42:37;;;;;;;2.45;1.55;;;;;;;;;;5034377;28;20548;-69
2022/01/16 09:45:07;;;;;;;3.17;2.03;;;;;;;;;;5032157;28;20060;-69
2022/01/16 09:47:33;;;;;;;3.67;1.70;;;;;;;;;;5031789;28;20083;-69
2022/01/16 09:49:59;;;;;;;3.35;1.80;;;;;;;;;;5030541;28;20037;-69
2022/01/16 09:52:26;;;;;;;2.40;1.40;;;;;;;;;;5044671;28;20018;-69
2022/01/16 09:54:51;;;;;;;3.38;1.30;;;;;;;;;;5044925;28;20068;-70
2022/01/16 09:57:18;;;;;;;3.42;1.67;;;;;;;;;;5034473;28;20067;-69
2022/01/16 09:59:45;;;;;;;2.35;1.30;;;;;;;;;;5034137;28;20034;-69
2022/01/16 10:02:11;;;;;;;3.00;1.50;;;;;;;;;;5034070;28;20033;-69
2022/01/16 10:04:38;;;;;;;2.70;1.10;;;;;;;;;;5031132;28;20032;-68
2022/01/16 10:07:08;;;;;;;4.90;2.20;;;;;;;;;;5034794;28;20481;-68
2022/01/16 10:09:35;;;;;;;7.07;3.30;;;;;;;;;;5035371;28;20032;-68
2022/01/16 10:12:04;;;;;;;4.88;2.70;;;;;;;;;;5033154;28;20385;-69
2022/01/16 10:14:45;;;;;;;3.17;1.58;;;;;;;;;;5036966;28;20096;-68
2022/01/16 10:17:12;;;;;;;3.10;1.42;;;;;;;;;;5043184;28;20078;-68
2022/01/16 10:19:38;;;;;;;2.50;1.23;;;;;;;;;;5030732;28;20029;-69
2022/01/16 10:22:05;;;;;;;3.05;1.42;;;;;;;;;;5048147;28;20438;-67
2022/01/16 10:24:34;;;;;;;4.05;1.55;;;;;;;;;;5044604;28;20086;-68
2022/01/16 10:27:11;;;;;;;2.35;1.58;;;;;;;;;;5036677;28;20021;-67
2022/01/16 10:29:40;;;;;;;2.63;1.40;;;;;;;;;;5032918;28;20032;-67
2022/01/16 10:32:15;;;;;;;3.42;1.30;;;;;;;;;;5033725;28;20261;-67
2022/01/16 10:34:41;;;;;;;3.00;1.50;;;;;;;;;;5030992;28;20398;-67
2022/01/16 10:37:21;;;;;;;2.20;1.20;;;;;;;;;;5033196;28;20041;-67
2022/01/16 10:39:52;;;;;;;3.65;1.20;;;;;;;;;;5036494;28;20235;-67
2022/01/16 10:42:18;;;;;;;1.70;0.90;;;;;;;;;;5033756;28;20507;-67
2022/01/16 10:44:45;;;;;;;1.85;1.00;;;;;;;;;;5033328;28;20392;-68
2022/01/16 10:47:32;;;;;;;4.47;2.10;;;;;;;;;;5031275;28;20365;-68
2022/01/16 10:49:59;;;;;;;4.20;2.10;;;;;;;;;;5030513;28;20889;-68
2022/01/16 10:52:25;;;;;;;3.00;1.98;;;;;;;;;;5044917;28;20032;-68
2022/01/16 10:54:51;;;;;;;3.67;2.25;;;;;;;;;;5036773;28;20041;-68
2022/01/16 10:57:18;;;;;;;2.38;1.40;;;;;;;;;;5032222;28;20289;-68
2022/01/16 10:59:44;;;;;;;3.25;1.83;;;;;;;;;;5032393;28;20830;-68
2022/01/16 11:02:10;;;;;;;3.28;1.45;;;;;;;;;;5031671;28;20025;-68
2022/01/16 11:04:36;;;;;;;2.10;1.27;;;;;;;;;;5044442;28;20018;-68
2022/01/16 11:07:03;;;;;;;2.38;1.50;;;;;;;;;;5033609;28;20026;-68
2022/01/16 11:09:30;;;;;;;4.20;1.35;;;;;;;;;;5033366;28;20029;-68
2022/01/16 11:11:59;;;;;;;2.63;1.50;;;;;;;;;;5032735;28;20029;-68
2022/01/16 11:14:29;;;;;;;3.58;1.17;;;;;;;;;;5035604;28;20389;-68
2022/01/16 11:16:55;;;;;;;1.88;1.00;;;;;;;;;;5043746;28;20079;-68
2022/01/16 11:19:23;;;;;;;3.10;1.13;;;;;;;;;;5029939;28;20092;-67
2022/01/16 11:21:53;;;;;;;4.10;1.50;;;;;;;;;;5046941;28;20024;-68
2022/01/16 11:24:47;;;;;;;2.28;1.10;;;;;;;;;;5041222;28;20059;-69
2022/01/16 11:27:16;;;;;;;1.73;0.90;;;;;;;;;;5033462;28;20036;-68
2022/01/16 11:29:43;;;;;;;3.65;1.13;;;;;;;;;;5032191;28;20424;-68
2022/01/16 11:32:09;;;;;;;1.77;1.08;;;;;;;;;;5032633;28;20362;-68
2022/01/16 11:34:36;;;;;;;1.40;1.02;;;;;;;;;;5029292;28;20021;-68
2022/01/16 11:37:02;;;;;;;2.60;1.23;;;;;;;;;;5032850;28;20049;-68
2022/01/16 11:39:35;;;;;;;1.58;1.10;;;;;;;;;;5033652;28;20438;-68
2022/01/16 11:42:02;;;;;;;2.38;1.20;;;;;;;;;;5032372;28;20022;-68
2022/01/16 11:44:29;;;;;;;1.90;1.00;;;;;;;;;;5032385;28;20021;-68
2022/01/16 11:46:57;;;;;;;1.65;0.88;;;;;;;;;;5032025;28;20029;-68
2022/01/16 11:49:34;;;;;;;2.00;0.85;;;;;;;;;;5028748;28;20022;-68
2022/01/16 11:52:07;;;;;;;2.83;1.00;;;;;;;;;;5043643;28;20387;-68
2022/01/16 11:54:37;;;;;;;2.25;1.08;;;;;;;;;;5035606;28;20029;-69
2022/01/16 11:57:03;;;;;;;3.40;1.48;;;;;;;;;;5032081;28;20400;-69
2022/01/16 11:59:35;;;;;;;1.77;1.00;;;;;;;;;;5032200;28;20021;-69
2022/01/16 12:02:01;;;;;;;1.67;0.77;;;;;;;;;;5031571;28;20025;-69
2022/01/16 12:04:30;;;;;;;1.45;0.60;;;;;;;;;;5028325;28;20033;-69
2022/01/16 12:07:05;;;;;;;0.95;0.52;;;;;;;;;;5034265;28;20021;-69
2022/01/16 12:09:47;;;;;;;0.65;0.50;;;;;;;;;;5032519;28;20080;-69
2022/01/16 12:12:16;;;;;;;1.00;0.60;;;;;;;;;;5031740;28;20029;-69
2022/01/16 12:14:57;;;;;;;0.70;0.40;;;;;;;;;;5036572;28;20112;-69
2022/01/16 12:17:32;;;;;;;0.57;0.40;;;;;;;;;;5039779;28;20080;-69
2022/01/16 12:20:13;;;;;;;0.50;0.47;;;;;;;;;;5026486;28;20099;-69
2022/01/16 12:22:50;;;;;;;1.83;0.60;;;;;;;;;;5041728;28;20046;-69
2022/01/16 12:25:22;;;;;;;0.45;0.40;;;;;;;;;;5044928;28;20092;-69
2022/01/16 12:27:49;;;;;;;0.77;0.40;;;;;;;;;;5034239;28;20022;-69
2022/01/16 12:30:22;;;;;;;1.53;0.73;;;;;;;;;;5034118;28;20024;-69
2022/01/16 12:32:56;;;;;;;0.70;0.30;;;;;;;;;;5032154;28;20460;-69
2022/01/16 12:35:41;;;;;;;1.48;0.52;;;;;;;;;;5031658;28;20041;-69
2022/01/16 12:38:15;;;;;;;0.40;0.30;;;;;;;;;;5031570;28;20045;-69
2022/01/16 12:40:44;;;;;;;0.30;0.30;;;;;;;;;;5029302;28;20030;-69
2022/01/16 12:43:15;;;;;;;0.52;0.38;;;;;;;;;;5030883;28;20377;-69
2022/01/16 12:45:42;;;;;;;0.68;0.38;;;;;;;;;;5034044;28;20134;-69
2022/01/16 12:48:09;;;;;;;0.52;0.30;;;;;;;;;;5031557;28;20036;-69
2022/01/16 12:50:35;;;;;;;0.47;0.30;;;;;;;;;;5033224;28;20029;-69
2022/01/16 12:53:01;;;;;;;0.47;0.45;;;;;;;;;;5031035;28;20025;-69
2022/01/16 12:55:28;;;;;;;1.00;0.35;;;;;;;;;;5027348;28;20107;-69
2022/01/16 12:57:54;;;;;;;0.60;0.40;;;;;;;;;;5034382;28;20400;-70
2022/01/16 13:00:20;;;;;;;1.10;0.40;;;;;;;;;;5031867;28;20091;-71
2022/01/16 13:02:53;;;;;;;0.43;0.20;;;;;;;;;;5031566;28;20021;-70
2022/01/16 13:05:22;;;;;;;0.75;0.35;;;;;;;;;;5031854;28;20021;-70
2022/01/16 13:07:48;;;;;;;0.50;0.30;;;;;;;;;;5030247;28;20028;-70
2022/01/16 13:10:14;;;;;;;0.40;0.30;;;;;;;;;;5029464;28;20080;-68
2022/01/16 13:12:40;;;;;;;0.55;0.40;;;;;;;;;;5033875;28;20113;-70
2022/01/16 13:15:06;;;;;;;0.57;0.40;;;;;;;;;;5039710;28;20037;-70
2022/01/16 13:17:32;;;;;;;0.47;0.30;;;;;;;;;;5037705;28;20470;-70
2022/01/16 13:20:01;;;;;;;0.85;0.43;;;;;;;;;;5028757;28;20034;-69
2022/01/16 13:22:28;;;;;;;0.38;0.35;;;;;;;;;;5045484;28;20508;-69
2022/01/16 13:24:55;;;;;;;0.93;0.40;;;;;;;;;;5051555;28;20083;-69
2022/01/16 13:27:26;;;;;;;0.95;0.30;;;;;;;;;;5036708;28;20582;-69
2022/01/16 13:29:59;;;;;;;0.60;0.50;;;;;;;;;;5034328;28;20091;-69
2022/01/16 13:32:32;;;;;;;1.30;0.50;;;;;;;;;;5034752;28;20381;-69
2022/01/16 13:34:58;;;;;;;1.27;0.60;;;;;;;;;;5035134;28;20043;-69
2022/01/16 13:37:27;;;;;;;1.95;0.70;;;;;;;;;;5014566;28;20042;-69
2022/01/16 13:39:57;;;;;;;0.70;0.60;;;;;;;;;;5039846;28;20021;-69
2022/01/16 13:42:29;;;;;;;1.08;0.70;;;;;;;;;;5035219;28;20485;-69
2022/01/16 13:45:14;;;;;;;3.90;1.10;;;;;;;;;;5034450;28;20033;-69
2022/01/16 13:47:49;;;;;;;5.53;2.70;;;;;;;;;;5034741;28;20036;-69
2022/01/16 13:50:15;;;;;;;3.90;1.90;;;;;;;;;;5033801;28;20021;-70
2022/01/16 13:52:50;;;;;;;4.05;1.52;;;;;;;;;;5046000;28;20037;-69
2022/01/16 13:55:16;;;;;;;3.20;1.90;;;;;;;;;;5032346;28;20099;-69
2022/01/16 13:57:42;;;;;;;4.07;1.90;;;;;;;;;;5036817;28;20025;-69
2022/01/16 14:00:09;;;;;;;4.63;1.73;;;;;;;;;;5034195;28;20037;-69
2022/01/16 14:02:36;;;;;;;5.45;2.53;;;;;;;;;;5034159;28;20021;-69
2022/01/16 14:05:02;;;;;;;6.20;2.80;;;;;;;;;;5034453;28;20106;-69
2022/01/16 14:07:28;;;;;;;3.58;1.63;;;;;;;;;;5030053;28;20030;-69
2022/01/16 14:09:56;;;;;;;8.27;1.77;;;;;;;;;;5036850;28;20156;-69
2022/01/16 14:12:22;;;;;;;5.53;2.15;;;;;;;;;;5035911;28;20026;-69
2022/01/16 14:14:49;;;;;;;4.82;2.83;;;;;;;;;;5042648;28;20440;-69
2022/01/16 14:22:19;;;;;;;7.03;3.05;;;;;;;;;;5046474;28;20026;-69
2022/01/16 14:24:45;;;;;;;7.28;3.90;;;;;;;;;;5048832;28;20437;-69
2022/01/16 14:27:12;;;;;;;8.98;4.90;;;;;;;;;;5035003;28;20318;-69
2022/01/16 14:29:39;;;;;;;37.77;17.93;;;;;;;;;;5033408;28;20026;-68
2022/01/16 14:32:06;;;;;;;27.10;11.82;;;;;;;;;;5034020;28;20116;-69
2022/01/16 14:34:33;;;;;;;15.80;6.22;;;;;;;;;;5029118;28;20401;-69
2022/01/16 14:36:59;;;;;;;5.97;2.43;;;;;;;;;;5035092;28;20057;-69
2022/01/16 14:39:26;;;;;;;4.18;2.47;;;;;;;;;;5034500;28;20029;-69
2022/01/16 14:41:53;;;;;;;7.95;4.20;;;;;;;;;;5033507;28;20026;-69
2022/01/16 14:44:20;;;;;;;8.52;4.18;;;;;;;;;;5033692;28;20033;-68
2022/01/16 14:46:46;;;;;;;41.30;19.80;;;;;;;;;;5032024;28;20025;-69
2022/01/16 14:49:14;;;;;;;31.00;16.00;;;;;;;;;;5031571;28;20073;-69
2022/01/16 14:51:40;;;;;;;14.20;7.50;;;;;;;;;;5035211;28;20068;-69
2022/01/16 14:54:06;;;;;;;15.05;7.13;;;;;;;;;;5033553;28;20029;-69
2022/01/16 14:56:32;;;;;;;11.05;5.57;;;;;;;;;;5032867;28;20064;-69
2022/01/16 14:58:58;;;;;;;9.95;4.20;;;;;;;;;;5032812;28;20029;-68
2022/01/16 15:01:24;;;;;;;8.15;4.30;;;;;;;;;;5028902;28;20448;-68
2022/01/16 15:03:50;;;;;;;9.07;4.20;;;;;;;;;;5036375;28;20064;-69
2022/01/16 15:06:16;;;;;;;6.78;3.63;;;;;;;;;;5032947;28;20056;-69
2022/01/16 15:08:44;;;;;;;8.23;4.75;;;;;;;;;;5031248;28;20397;-69
2022/01/16 15:11:11;;;;;;;8.02;4.65;;;;;;;;;;5032948;28;20078;-69
2022/01/16 15:13:37;;;;;;;10.43;5.57;;;;;;;;;;5029837;28;20693;-69
2022/01/16 15:16:03;;;;;;;11.70;6.88;;;;;;;;;;5049132;28;20081;-69
2022/01/16 15:18:29;;;;;;;9.50;4.88;;;;;;;;;;5035313;28;20033;-69
2022/01/16 15:20:58;;;;;;;16.10;9.02;;;;;;;;;;5037069;28;20064;-69
2022/01/16 15:23:25;;;;;;;12.18;6.55;;;;;;;;;;5041013;28;20127;-69
2022/01/16 15:25:51;;;;;;;8.27;4.47;;;;;;;;;;5044285;28;20025;-68
2022/01/16 15:28:17;;;;;;;14.07;8.82;;;;;;;;;;5029914;28;20022;-69
2022/01/16 15:30:44;;;;;;;13.60;7.15;;;;;;;;;;5034798;28;20032;-69
2022/01/16 15:33:10;;;;;;;10.55;5.78;;;;;;;;;;5032566;28;20026;-68
2022/01/16 15:35:37;;;;;;;9.77;5.65;;;;;;;;;;5032048;28;20041;-69